.
WxDataArchive / Data Records for 2012-07-20
2012-07-19 July 2012 2012-07-21

Data Records for Friday, 20 July 2012

Time	Temp	Chill	HIndex	Humid	Dewpt	 Wind 	HiWind	WindDir	Rain 	Barom 
-----	----	-----	------	-----	-----	------	------	-------	-----	----- 
00:00	73.2	73.2	73.2	90	70.1	1	4	90	0.00	29.874 
00:05	73.2	73.2	73.2	90	70.1	1	3	90	0.00	29.874 
00:10	73.2	73.2	73.2	90	70.1	1	5	135	0.00	29.874 
00:15	73.0	73.0	73.0	90	69.9	1	4	135	0.00	29.877 
00:20	73.0	73.0	73.0	90	69.9	0	2	135	0.00	29.877 
00:25	73.0	73.0	73.0	90	69.9	0	2	135	0.00	29.877 
00:30	73.0	73.0	73.0	90	69.9	1	3	90	0.00	29.877 
00:35	73.0	73.0	73.0	90	69.9	1	5	112	0.00	29.877 
00:40	73.0	73.0	73.0	90	69.9	1	4	135	0.00	29.877 
00:45	72.8	72.8	72.8	90	69.7	1	4	135	0.00	29.870 
00:50	72.7	72.7	72.7	90	69.6	0	4	112	0.00	29.870 
00:55	72.5	72.5	72.5	90	69.4	1	5	112	0.00	29.870 
01:00	72.5	72.5	72.5	90	69.4	1	4	112	0.00	29.873 
01:05	72.3	72.3	72.3	90	69.2	1	4	112	0.00	29.873 
01:10	72.3	72.3	72.3	90	69.2	1	4	135	0.00	29.873 
01:15	72.1	72.1	72.1	90	69.0	1	4	112	0.00	29.868 
01:20	72.1	72.1	72.1	90	69.0	0	3	135	0.00	29.868 
01:25	72.0	72.0	72.0	90	68.9	2	6	135	0.00	29.868 
01:30	72.0	72.0	72.0	90	68.9	1	3	90	0.00	29.871 
01:35	71.8	71.8	71.8	89	68.4	2	4	112	0.00	29.871 
01:40	71.5	71.5	71.5	88	67.7	2	5	135	0.00	29.871 
01:45	71.5	71.5	71.5	88	67.7	1	6	90	0.00	29.879 
01:50	71.3	71.3	71.3	88	67.6	2	6	90	0.00	29.879 
01:55	71.3	71.3	71.3	88	67.6	2	7	90	0.00	29.879 
02:00	71.1	71.1	71.1	87	67.0	1	4	90	0.00	29.884 
02:05	70.9	70.9	70.9	87	66.8	1	3	90	0.00	29.884 
02:10	70.9	70.9	70.9	87	66.8	0	2	90	0.00	29.884 
02:15	70.6	70.6	70.6	87	66.5	2	9	135	0.00	29.880 
02:20	70.4	70.4	70.4	87	66.3	1	3	135	0.00	29.880 
02:25	70.3	70.3	70.3	87	66.2	2	5	90	0.00	29.880 
02:30	70.1	70.1	70.1	87	66.0	0	3	90	0.00	29.882 
02:35	69.8	69.8	69.8	87	65.7	2	11	90	0.00	29.882 
02:40	69.6	69.6	69.6	87	65.6	3	7	90	0.00	29.882 
02:45	69.4	69.4	69.4	87	65.4	1	3	90	0.00	29.883 
02:50	69.3	69.3	69.3	87	65.3	2	4	90	0.00	29.883 
02:55	68.9	68.9	68.9	87	64.9	3	6	90	0.00	29.883 
03:00	68.8	68.8	68.8	87	64.8	1	5	22	0.00	29.887 
03:05	68.6	68.6	68.6	87	64.6	2	6	90	0.00	29.887 
03:10	68.6	68.6	68.6	88	64.9	2	5	90	0.00	29.887 
03:15	68.4	68.4	68.4	88	64.7	2	8	90	0.00	29.894 
03:20	68.4	68.4	68.4	88	64.7	1	5	68	0.00	29.894 
03:25	68.4	68.4	68.4	88	64.7	2	6	90	0.00	29.894 
03:30	68.4	68.4	68.4	89	65.0	2	6	68	0.00	29.896 
03:35	68.3	68.3	68.3	89	64.9	2	7	112	0.00	29.896 
03:40	68.1	68.1	68.1	90	65.0	1	5	90	0.00	29.896 
03:45	67.9	67.9	67.9	90	64.9	1	6	112	0.00	29.898 
03:50	67.8	67.8	67.8	90	64.8	1	5	112	0.00	29.898 
03:55	67.6	67.6	67.6	91	64.9	1	6	135	0.00	29.898 
04:00	67.3	67.3	67.3	91	64.6	1	5	112	0.00	29.901 
04:05	67.1	67.1	67.1	91	64.4	1	5	90	0.00	29.901 
04:10	66.8	66.8	66.8	91	64.1	2	6	90	0.01	29.901 
04:15	66.6	66.6	66.6	91	63.9	0	4	90	0.00	29.910 
04:20	66.3	66.3	66.3	91	63.6	1	6	90	0.00	29.910 
04:25	66.0	66.0	66.0	91	63.3	1	5	135	0.00	29.910 
04:30	65.6	65.6	65.6	91	62.9	2	7	90	0.00	29.908 
04:35	65.5	65.5	65.5	92	63.1	2	7	90	0.00	29.908 
04:40	65.3	65.3	65.3	92	62.9	2	6	90	0.00	29.908 
04:45	65.2	65.2	65.2	92	62.8	2	5	90	0.00	29.912 
04:50	65.0	65.0	65.0	92	62.6	1	5	90	0.00	29.912 
04:55	65.0	65.0	65.0	92	62.6	1	7	90	0.00	29.912 
05:00	65.0	65.0	65.0	92	62.6	1	5	90	0.00	29.915 
05:05	65.0	65.0	65.0	92	62.6	1	5	90	0.00	29.915 
05:10	65.0	65.0	65.0	92	62.6	2	6	90	0.00	29.915 
05:15	65.0	65.0	65.0	92	62.6	2	7	90	0.00	29.914 
05:20	64.8	64.8	64.8	91	62.1	2	9	90	0.00	29.914 
05:25	65.0	65.0	65.0	92	62.6	1	3	90	0.00	29.914 
05:30	65.0	65.0	65.0	92	62.6	1	5	90	0.00	29.919 
05:35	65.0	65.0	65.0	92	62.6	2	7	90	0.00	29.919 
05:40	64.8	64.8	64.8	91	62.1	3	6	90	0.00	29.919 
05:45	64.8	64.8	64.8	91	62.1	2	7	90	0.00	29.925 
05:50	64.8	64.8	64.8	91	62.1	2	6	112	0.00	29.925 
05:55	64.7	64.7	64.7	91	62.0	1	3	90	0.00	29.925 
06:00	64.7	64.7	64.7	91	62.0	1	3	90	0.00	29.934 
06:05	64.3	64.3	64.3	90	61.3	2	4	90	0.00	29.934 
06:10	64.2	64.2	64.2	90	61.2	1	6	90	0.00	29.934 
06:15	64.2	64.2	64.2	90	61.2	2	4	112	0.00	29.937 
06:20	64.0	64.0	64.0	90	61.0	2	5	90	0.00	29.937 
06:25	64.0	64.0	64.0	90	61.0	1	4	90	0.00	29.937 
06:30	64.2	64.2	64.2	90	61.2	1	5	112	0.00	29.942 
06:35	64.2	64.2	64.2	89	60.9	1	6	112	0.00	29.942 
06:40	64.0	64.0	64.0	89	60.7	2	7	68	0.00	29.942 
06:45	64.0	64.0	64.0	89	60.7	2	6	112	0.00	29.949 
06:50	64.0	64.0	64.0	89	60.7	2	6	90	0.00	29.949 
06:55	64.0	64.0	64.0	89	60.7	2	6	112	0.00	29.949 
07:00	63.9	63.9	63.9	89	60.6	2	7	90	0.02	29.950 
07:05	63.5	63.5	63.5	90	60.5	1	5	112	0.03	29.950 
07:10	63.2	63.2	63.2	91	60.5	1	4	68	0.02	29.950 
07:15	62.9	62.9	62.9	91	60.2	2	5	68	0.01	29.959 
07:20	62.7	62.7	62.7	92	60.3	2	6	90	0.00	29.959 
07:25	62.6	62.6	62.6	92	60.2	1	5	90	0.00	29.959 
07:30	62.6	62.6	62.6	92	60.2	1	3	90	0.00	29.955 
07:35	62.6	62.6	62.6	93	60.5	1	3	90	0.00	29.955 
07:40	62.6	62.6	62.6	93	60.5	1	5	90	0.01	29.955 
07:45	62.6	62.6	62.6	93	60.5	1	3	68	0.00	29.966 
07:50	62.6	62.6	62.6	93	60.5	2	7	90	0.00	29.966 
07:55	62.6	62.6	62.6	93	60.5	1	5	90	0.00	29.966 
08:00	62.4	62.4	62.4	93	60.3	2	6	90	0.00	29.969 
08:05	62.4	62.4	62.4	93	60.3	2	6	68	0.00	29.969 
08:10	62.4	62.4	62.4	93	60.3	1	4	45	0.00	29.969 
08:15	62.4	62.4	62.4	92	60.0	2	8	90	0.00	29.977 
08:20	62.3	62.3	62.3	92	59.9	2	6	90	0.00	29.977 
08:25	62.3	62.3	62.3	92	59.9	1	5	90	0.00	29.977 
08:30	62.3	62.3	62.3	92	59.9	1	5	90	0.00	29.979 
08:35	62.1	62.1	62.1	92	59.7	1	4	90	0.00	29.979 
08:40	62.1	62.1	62.1	92	59.7	1	6	90	0.00	29.979 
08:45	62.1	62.1	62.1	92	59.7	1	5	112	0.00	29.983 
08:50	62.3	62.3	62.3	92	59.9	1	5	112	0.00	29.983 
08:55	62.3	62.3	62.3	92	59.9	1	4	112	0.00	29.983 
09:00	62.3	62.3	62.3	92	59.9	1	3	112	0.00	29.987 
09:05	62.4	62.4	62.4	92	60.0	0	2	112	0.00	29.987 
09:10	62.6	62.6	62.6	92	60.2	0	2	112	0.00	29.987 
09:15	62.7	62.7	62.7	92	60.3	1	3	112	0.00	29.987 
09:20	63.1	63.1	63.1	92	60.7	0	2	112	0.00	29.987 
09:25	63.2	63.2	63.2	92	60.8	0	3	112	0.00	29.987 
09:30	63.5	63.5	63.5	92	61.1	0	3	112	0.00	29.989 
09:35	63.7	63.7	63.7	91	61.0	1	3	112	0.00	29.989 
09:40	63.7	63.7	63.7	90	60.7	1	4	112	0.00	29.989 
09:45	63.9	63.9	63.9	89	60.6	1	3	112	0.00	29.988 
09:50	64.0	64.0	64.0	88	60.4	1	5	112	0.00	29.988 
09:55	64.3	64.3	64.3	87	60.3	1	4	90	0.00	29.988 
10:00	64.8	64.8	64.8	87	60.8	1	4	90	0.00	29.984 
10:05	66.1	66.1	66.1	88	62.4	1	5	68	0.00	29.984 
10:10	66.8	66.8	66.8	82	61.1	1	4	90	0.00	29.984 
10:15	67.8	67.8	67.8	81	61.7	1	4	112	0.00	29.985 
10:20	68.1	68.1	68.1	77	60.6	2	7	90	0.00	29.985 
10:25	68.4	68.4	68.4	77	60.9	2	6	90	0.00	29.985 
10:30	69.1	69.1	69.1	76	61.2	2	4	90	0.00	29.987 
10:35	69.8	69.8	69.8	75	61.5	2	7	90	0.00	29.987 
10:40	70.4	70.4	70.4	72	60.9	4	11	90	0.00	29.987 
10:45	71.1	71.1	71.1	71	61.2	3	12	90	0.00	29.985 
10:50	71.6	71.6	71.6	69	60.9	3	7	68	0.00	29.985 
10:55	71.5	71.5	71.5	69	60.8	3	13	22	0.00	29.985 
11:00	71.8	71.8	71.8	67	60.2	4	9	90	0.00	29.987 
11:05	72.0	72.0	72.0	69	61.3	3	6	90	0.00	29.987 
11:10	72.7	72.7	72.7	67	61.1	2	5	90	0.00	29.987 
11:15	73.0	73.0	73.0	67	61.4	1	5	135	0.00	29.996 
11:20	73.3	73.3	73.3	67	61.7	3	10	90	0.00	29.996 
11:25	73.5	73.5	73.5	65	61.0	3	7	68	0.00	29.996 
11:30	73.7	73.7	73.7	65	61.2	4	15	90	0.00	29.996 
11:35	73.7	73.7	73.7	66	61.6	3	10	112	0.00	29.996 
11:40	73.7	73.7	73.7	64	60.7	2	7	112	0.00	29.996 
11:45	73.5	73.5	73.5	65	61.0	5	9	90	0.00	30.005 
11:50	73.5	73.5	73.5	65	61.0	5	11	90	0.00	30.005 
11:55	73.9	73.9	73.9	65	61.4	4	10	90	0.00	30.005 
12:00	74.7	74.7	74.7	64	61.7	3	10	90	0.00	30.005 
12:05	74.7	74.7	74.7	64	61.7	4	9	90	0.00	30.005 
12:10	75.1	75.1	77.4	61	60.7	3	6	90	0.00	30.005 
12:15	75.3	75.3	77.5	60	60.4	3	8	90	0.00	30.003 
12:20	76.0	76.0	78.0	62	62.0	2	12	90	0.00	30.003 
12:25	76.1	76.1	78.1	61	61.7	4	12	90	0.00	30.003 
12:30	76.3	76.3	78.2	59	60.9	4	10	90	0.00	30.005 
12:35	76.5	76.5	78.4	58	60.6	3	10	90	0.00	30.005 
12:40	77.0	77.0	78.7	56	60.1	4	9	90	0.00	30.005 
12:45	76.5	76.5	78.4	60	61.6	3	9	90	0.00	30.008 
12:50	76.1	76.1	78.1	60	61.2	3	7	90	0.00	30.008 
12:55	76.5	76.5	78.4	59	61.1	3	11	112	0.00	30.008 
13:00	76.3	76.3	78.2	58	60.4	2	7	90	0.00	30.007 
13:05	76.5	76.5	78.4	59	61.1	4	7	90	0.00	30.007 
13:10	76.3	76.3	78.2	60	61.4	2	5	90	0.00	30.007 
13:15	76.5	76.5	78.4	57	60.1	4	10	90	0.00	30.005 
13:20	76.5	76.5	78.4	58	60.6	4	8	90	0.00	30.005 
13:25	76.3	76.3	78.2	58	60.4	3	9	68	0.00	30.005 
13:30	76.5	76.5	78.4	58	60.6	3	9	68	0.00	30.010 
13:35	76.5	76.5	78.4	57	60.1	5	10	90	0.00	30.010 
13:40	76.7	76.7	78.5	58	60.8	2	5	90	0.00	30.010 
13:45	76.8	76.8	78.6	59	61.4	3	10	90	0.00	30.012 
13:50	76.7	76.7	78.5	58	60.8	5	9	90	0.00	30.012 
13:55	76.5	76.5	78.4	58	60.6	3	7	90	0.00	30.012 
14:00	76.5	76.5	78.4	59	61.1	1	5	90	0.00	30.013 
14:05	77.2	77.2	78.9	57	60.8	2	6	90	0.00	30.013 
14:10	78.1	78.1	79.5	55	60.6	3	7	90	0.00	30.013 
14:15	78.3	78.3	79.6	53	59.7	5	13	90	0.00	30.012 
14:20	77.9	77.9	79.4	55	60.4	3	6	90	0.00	30.012 
14:25	77.4	77.4	79.0	55	59.9	2	7	90	0.00	30.012 
14:30	77.4	77.4	79.0	56	60.5	4	10	90	0.00	30.013 
14:35	77.6	77.6	79.1	54	59.6	3	7	112	0.00	30.013 
14:40	78.1	78.1	79.5	54	60.1	1	3	135	0.00	30.013 
14:45	78.5	78.5	79.6	50	58.3	3	11	90	0.00	30.006 
14:50	78.6	78.6	79.7	51	58.9	3	7	112	0.00	30.006 
14:55	79.4	79.4	80.4	51	59.7	3	6	112	0.00	30.006 
15:00	79.0	79.0	80.0	50	58.7	4	10	90	0.00	30.003 
15:05	78.5	78.5	79.6	51	58.8	4	9	90	0.00	30.003 
15:10	78.6	78.6	79.8	53	60.0	3	7	90	0.00	30.003 
15:15	79.0	79.0	80.0	50	58.7	5	11	90	0.00	29.999 
15:20	79.0	79.0	79.8	48	57.6	5	12	90	0.00	29.999 
15:25	79.0	79.0	79.8	48	57.6	4	10	90	0.00	29.999 
15:30	79.6	79.6	80.5	50	59.3	3	6	90	0.00	29.999 
15:35	80.3	80.3	81.0	49	59.4	1	5	90	0.00	29.999 
15:40	79.8	79.8	80.5	48	58.3	4	11	90	0.00	29.999 
15:45	79.6	79.6	80.3	48	58.2	3	9	90	0.00	29.999 
15:50	79.9	79.9	80.4	47	57.8	3	6	68	0.00	29.999 
15:55	80.1	80.1	80.8	49	59.2	3	6	90	0.00	29.999 
16:00	80.3	80.3	80.7	46	57.6	2	6	90	0.00	30.000 
16:05	80.7	80.7	81.2	48	59.2	2	9	90	0.00	30.000 
16:10	80.7	80.7	81.1	47	58.6	3	9	90	0.00	30.000 
16:15	80.7	80.7	80.9	45	57.4	4	10	90	0.00	29.998 
16:20	80.9	80.9	81.3	47	58.8	1	5	90	0.00	29.998 
16:25	81.2	81.2	81.7	48	59.6	3	10	112	0.00	29.998 
16:30	81.2	81.2	81.5	46	58.4	2	5	90	0.00	29.995 
16:35	81.2	81.2	81.1	43	56.5	2	6	90	0.00	29.995 
16:40	81.1	81.1	80.8	41	55.1	1	2	315	0.00	29.995 
16:45	81.2	81.2	81.1	43	56.5	2	7	90	0.00	29.995 
16:50	81.4	81.4	81.4	44	57.4	2	5	112	0.00	29.995 
16:55	81.8	81.8	81.5	42	56.4	2	6	90	0.00	29.995 
17:00	81.6	81.6	81.2	41	55.6	3	7	112	0.00	29.990 
17:05	81.2	81.2	81.1	43	56.5	3	8	90	0.00	29.990 
17:10	81.1	81.1	80.8	41	55.1	2	6	112	0.00	29.990 
17:15	81.1	81.1	80.9	42	55.8	3	9	90	0.00	29.988 
17:20	81.2	81.2	80.9	41	55.2	2	5	112	0.00	29.988 
17:25	81.4	81.4	81.1	41	55.4	2	4	112	0.00	29.988 
17:30	81.2	81.2	80.9	41	55.2	3	6	112	0.00	29.994 
17:35	81.2	81.2	81.1	43	56.5	1	7	90	0.00	29.994 
17:40	81.2	81.2	80.7	39	53.9	1	6	90	0.00	29.994 
17:45	81.2	81.2	80.6	38	53.1	2	6	90	0.00	29.996 
17:50	80.9	80.9	80.2	36	51.4	4	6	90	0.00	29.996 
17:55	80.5	80.5	80.2	39	53.2	3	9	112	0.00	29.996 
18:00	80.5	80.5	80.5	42	55.3	2	5	112	0.00	29.997 
18:05	80.3	80.3	80.2	41	54.4	2	4	68	0.00	29.997 
18:10	80.1	80.1	80.4	45	56.8	2	5	112	0.00	29.997 
18:15	80.1	80.1	80.4	45	56.8	3	7	112	0.00	30.000 
18:20	79.8	79.8	80.2	45	56.5	3	7	112	0.00	30.000 
18:25	79.6	79.6	80.0	44	55.7	3	7	112	0.00	30.000 
18:30	79.2	79.2	79.8	45	56.0	3	5	90	0.00	30.001 
18:35	79.2	79.2	79.8	46	56.6	2	5	90	0.00	30.001 
18:40	79.0	79.0	79.6	44	55.2	2	4	90	0.00	30.001 
18:45	78.8	78.8	79.5	45	55.6	2	5	90	0.00	30.000 
18:50	78.6	78.6	79.2	43	54.2	3	7	112	0.00	30.000 
18:55	78.5	78.5	79.2	43	54.1	3	7	90	0.00	30.000 
19:00	78.1	78.1	78.9	43	53.8	3	6	112	0.00	29.998 
19:05	78.1	78.1	78.9	42	53.1	2	9	90	0.00	29.998 
19:10	77.9	77.9	78.9	44	54.2	3	5	90	0.00	29.998 
19:15	77.9	77.9	78.9	44	54.2	2	5	68	0.00	30.002 
19:20	77.7	77.7	78.8	45	54.6	1	6	68	0.00	30.002 
19:25	77.7	77.7	78.8	44	54.0	2	4	68	0.00	30.002 
19:30	77.6	77.6	78.7	43	53.3	3	5	68	0.00	30.004 
19:35	77.6	77.6	78.7	43	53.3	2	5	90	0.00	30.004 
19:40	77.4	77.4	78.6	44	53.8	2	6	90	0.00	30.004 
19:45	77.2	77.2	78.5	44	53.6	1	6	90	0.00	30.008 
19:50	77.2	77.2	78.5	44	53.6	2	4	90	0.00	30.008 
19:55	77.0	77.0	78.5	46	54.6	1	4	90	0.00	30.008 
20:00	77.0	77.0	78.5	46	54.6	1	2	90	0.00	30.013 
20:05	77.0	77.0	78.5	46	54.6	2	4	90	0.00	30.013 
20:10	76.8	76.8	78.4	46	54.4	1	3	90	0.00	30.013 
20:15	76.8	76.8	78.4	46	54.4	1	3	90	0.00	30.016 
20:20	76.7	76.7	78.4	47	54.9	1	6	90	0.00	30.016 
20:25	76.5	76.5	78.3	47	54.7	1	3	90	0.00	30.016 
20:30	76.3	76.3	78.2	47	54.6	0	3	90	0.00	30.017 
20:35	76.0	76.0	78.0	48	54.9	0	2	90	0.00	30.017 
20:40	75.8	75.8	78.0	48	54.7	0	1	90	0.00	30.017 
20:45	75.6	75.6	77.9	50	55.6	0	0	---	0.00	30.018 
20:50	75.3	75.3	77.7	50	55.4	0	0	---	0.00	30.018 
20:55	74.9	74.9	74.9	50	55.0	0	0	---	0.00	30.018 
21:00	74.6	74.6	74.6	51	55.3	0	0	---	0.00	30.019 
21:05	74.2	74.2	74.2	53	56.0	0	0	---	0.00	30.019 
21:10	73.9	73.9	73.9	54	56.2	0	0	---	0.00	30.019 
21:15	73.7	73.7	73.7	55	56.5	0	0	---	0.00	30.018 
21:20	73.2	73.2	73.2	56	56.5	0	0	---	0.00	30.018 
21:25	72.8	72.8	72.8	57	56.7	0	0	---	0.00	30.018 
21:30	72.5	72.5	72.5	58	56.9	0	0	---	0.00	30.018 
21:35	72.1	72.1	72.1	60	57.4	0	0	---	0.00	30.018 
21:40	71.8	71.8	71.8	60	57.2	0	0	---	0.00	30.018 
21:45	71.5	71.5	71.5	60	56.9	0	0	---	0.00	30.023 
21:50	71.3	71.3	71.3	60	56.7	0	0	---	0.00	30.023 
21:55	71.1	71.1	71.1	61	57.0	0	0	---	0.00	30.023 
22:00	70.9	70.9	70.9	61	56.8	0	0	---	0.00	30.028 
22:05	70.8	70.8	70.8	62	57.1	0	0	---	0.00	30.028 
22:10	70.6	70.6	70.6	63	57.4	0	0	---	0.00	30.028 
22:15	70.3	70.3	70.3	63	57.1	0	0	---	0.00	30.030 
22:20	69.9	69.9	69.9	65	57.6	0	0	---	0.00	30.030 
22:25	69.6	69.6	69.6	65	57.3	0	0	---	0.00	30.030 
22:30	69.4	69.4	69.4	65	57.1	0	0	---	0.00	30.034 
22:35	69.1	69.1	69.1	66	57.3	0	0	---	0.00	30.034 
22:40	68.8	68.8	68.8	67	57.4	0	0	---	0.00	30.034 
22:45	68.6	68.6	68.6	68	57.6	0	0	---	0.00	30.034 
22:50	68.4	68.4	68.4	69	57.8	0	0	---	0.00	30.034 
22:55	68.3	68.3	68.3	70	58.1	0	0	---	0.00	30.034 
23:00	68.1	68.1	68.1	70	57.9	0	0	---	0.00	30.034 
23:05	67.8	67.8	67.8	71	58.0	0	0	---	0.00	30.034 
23:10	67.6	67.6	67.6	71	57.9	0	0	---	0.00	30.034 
23:15	67.3	67.3	67.3	72	58.0	0	0	---	0.00	30.032 
23:20	67.1	67.1	67.1	73	58.1	0	0	---	0.00	30.032 
23:25	66.8	66.8	66.8	74	58.2	0	0	---	0.00	30.032 
23:30	66.6	66.6	66.6	75	58.4	0	0	---	0.00	30.033 
23:35	66.3	66.3	66.3	75	58.1	0	0	---	0.00	30.033 
23:40	66.1	66.1	66.1	76	58.3	0	0	---	0.00	30.033 
23:45	66.0	66.0	66.0	77	58.6	0	0	---	0.00	30.034 
23:50	65.8	65.8	65.8	78	58.7	0	0	---	0.00	30.034 
23:55	65.6	65.6	65.6	79	58.9	0	0	---	0.00	30.034 

CoCoRaHS
IN-AL-39
A2 Web Hosting
Creative Commons License
GoDaddy
search engine by freefind advanced

loaded 2018-11-13 23:24:24 • last modified 2010-11-18 10:43:29
Privacy PolicyDisclaimer
• wx.awcolley.com is powered by PmWiki v.2002016 •
• all content (unless otherwise noted) © 2018 A W Colley